Latest Weather Observations for Kanagulk

IDV60801

Issued at 8:32 pm EDT Saturday 25 March 2017 (issued every 30 minutes, with the page automatically refreshed every 10 minutes)

About weather observations | Map of weather stations | Latest weather observations for VIC | Other Formats
Station Details ID: 079097 Name: KANAGULK Lat: -37.12 Lon: 141.80 Height: 188.8 m
Data from the previous 72 hours. | See also: Recent months at Kanagulk
Date/Time
EDT
Temp
°C
App
Temp
°C
Dew
Point
°C
Rel
Hum
%
Delta-T
°C
Wind Press
QNH
hPa
Press
MSL
hPa
Rain since
9am
mm
Dir  Spd
km/h
Gust
km/h
Spd
kts
Gust
kts
25/08:30pm 20.8 19.9 16.8 78 2.4 SSW 17 28 9 15 1013.4 1012.9 0.0
25/08:00pm 21.9 21.9 17.1 74 3.0 SSW 13 20 7 11 1013.0 1012.6 0.0
25/07:30pm 23.2 22.4 17.2 69 3.7 SSW 17 26 9 14 1012.4 1011.9 0.0
25/07:00pm 24.7 23.6 17.2 63 4.7 SW 19 30 10 16 1012.2 1011.7 0.0
25/06:30pm 27.1 25.7 14.5 46 7.6 WSW 15 22 8 12 1011.5 1011.0 0.0
25/06:00pm 28.3 27.4 13.8 41 8.7 W 11 19 6 10 1011.4 1010.9 0.0
25/05:30pm 29.6 28.4 12.9 35 9.9 WSW 11 22 6 12 1011.3 1010.8 0.0
25/05:00pm 29.9 28.4 13.2 36 10.0 WSW 13 22 7 12 1011.2 1010.7 0.0
25/04:30pm 29.1 28.1 13.3 37 9.5 WSW 11 24 6 13 1011.1 1010.6 0.0
25/04:00pm 30.3 29.0 13.6 36 10.1 WSW 13 24 7 13 1011.2 1010.7 0.0
25/03:30pm 30.0 29.4 14.5 38 9.5 WNW 11 19 6 10 1011.2 1010.7 0.0
25/03:00pm 29.5 28.5 14.5 40 9.2 WSW 13 22 7 12 1011.4 1010.9 0.0
25/02:30pm 28.5 27.8 14.3 41 8.6 WNW 11 20 6 11 1011.9 1011.4 0.0
25/02:00pm 29.0 29.1 15.5 44 8.4 WNW 9 20 5 11 1012.0 1011.5 0.0
25/01:30pm 27.6 26.7 14.9 45 7.7 WNW 13 22 7 12 1012.3 1011.8 0.0
25/01:00pm 27.8 27.9 15.5 47 7.6 WNW 9 19 5 10 1012.6 1012.2 0.0
25/12:30pm 27.0 27.1 15.4 49 7.1 NW 9 17 5 9 1012.8 1012.4 0.0
25/12:00pm 26.4 26.2 14.8 49 7.0 NW 9 19 5 10 1013.0 1012.6 0.0
25/11:30am 25.1 24.9 14.6 52 6.3 NNW 9 17 5 9 1013.5 1013.0 0.0
25/11:00am 25.2 24.7 14.9 52 6.2 NW 11 19 6 10 1013.4 1012.9 0.0
25/10:30am 24.3 23.6 14.4 54 5.9 N 11 19 6 10 1013.3 1012.8 0.0
25/10:00am 22.8 21.7 14.4 59 5.0 NNE 13 19 7 10 1013.4 1012.9 0.0
25/09:30am 22.4 20.6 14.5 61 4.7 NNE 17 20 9 11 1013.0 1012.6 0.0
25/09:00am 21.2 20.0 14.1 64 4.2 NNE 13 17 7 9 1012.7 1012.3 0.0
25/08:30am 19.9 18.7 14.0 69 3.4 NNE 13 15 7 8 1012.6 1012.2 0.0
25/08:00am 19.5 18.7 14.1 71 3.1 NNE 11 15 6 8 1012.2 1011.7 0.0
25/07:30am 19.4 19.0 14.0 71 3.1 NNE 9 13 5 7 1012.0 1011.5 0.0
25/07:00am 19.4 19.0 14.0 71 3.1 NNE 9 15 5 8 1011.9 1011.4 0.0
25/06:30am 19.7 19.3 14.1 70 3.3 NNE 9 13 5 7 1011.8 1011.3 0.0
25/06:00am 19.7 18.4 13.6 68 3.5 NNE 13 15 7 8 1011.6 1011.1 0.0
25/05:30am 20.5 19.5 13.5 64 4.0 NNE 11 19 6 10 1011.7 1011.2 0.0
25/05:00am 20.5 19.0 13.2 63 4.2 NNE 13 19 7 10 1011.5 1011.0 0.0
25/04:30am 20.9 18.7 13.4 62 4.3 NNE 17 20 9 11 1011.4 1010.9 0.0
25/04:00am 21.4 19.1 13.1 59 4.8 NNE 17 24 9 13 1011.7 1011.2 0.0
25/03:30am 21.3 19.5 13.2 60 4.7 NNE 15 20 8 11 1011.7 1011.2 0.0
25/03:00am 21.4 19.2 13.3 60 4.7 NE 17 24 9 13 1011.7 1011.2 0.0
25/02:30am 21.3 19.6 13.5 61 4.5 NE 15 19 8 10 1012.2 1011.7 0.0
25/02:00am 21.1 20.1 13.5 62 4.4 NE 11 19 6 10 1012.6 1012.2 0.0
25/01:30am 20.4 20.0 14.1 67 3.7 NNE 9 13 5 7 1013.2 1012.7 0.0
25/01:00am 20.0 19.7 14.4 70 3.3 NNE 9 11 5 6 1013.5 1013.0 0.0
25/12:30am 19.4 19.7 14.4 73 2.9 NE 6 7 3 4 1013.5 1013.0 0.0
25/12:00am 18.9 20.4 14.6 76 2.5 CALM 0 0 0 0 1014.0 1013.5 0.0
 
Date/Time
EDT
Temp
°C
App
Temp
°C
Dew
Point
°C
Rel
Hum
%
Delta-T
°C
Wind Press
QNH
hPa
Press
MSL
hPa
Rain since
9am
mm
Dir  Spd
km/h
Gust
km/h
Spd
kts
Gust
kts
24/11:30pm 19.0 20.3 14.1 73 2.8 CALM 0 0 0 0 1014.8 1014.3 0.0
24/11:00pm 19.1 20.3 13.7 71 3.1 CALM 0 0 0 0 1014.8 1014.3 0.0
24/10:30pm 19.1 20.1 13.1 68 3.4 CALM 0 0 0 0 1015.1 1014.6 0.0
24/10:00pm 18.5 19.5 13.1 71 3.1 CALM 0 0 0 0 1015.0 1014.5 0.0
24/09:30pm 19.5 20.3 12.5 64 4.0 CALM 0 0 0 0 1014.7 1014.2 0.0
24/09:00pm 19.8 20.7 13.0 65 3.9 CALM 0 0 0 0 1014.4 1013.9 0.0
24/08:30pm 20.2 21.0 12.4 61 4.4 CALM 0 0 0 0 1014.6 1014.1 0.0
24/08:00pm 21.7 22.5 12.5 56 5.3 CALM 0 0 0 0 1014.7 1014.2 0.0
24/07:30pm 23.4 24.2 12.4 50 6.3 CALM 0 0 0 0 1014.6 1014.1 0.0
24/07:00pm 25.0 25.6 11.9 44 7.5 CALM 0 6 0 3 1014.6 1014.1 0.0
24/06:30pm 26.5 26.8 12.2 41 8.3 ENE 2 7 1 4 1014.8 1014.3 0.0
24/06:00pm 25.8 25.4 12.3 43 7.8 NE 6 17 3 9 1014.9 1014.4 0.0
24/05:30pm 26.1 25.6 12.5 42 7.9 NE 7 15 4 8 1014.7 1014.2 0.0
24/05:00pm 26.6 25.2 12.3 41 8.3 NNE 11 20 6 11 1014.6 1014.1 0.0
24/04:30pm 27.0 25.7 12.6 41 8.4 NE 11 20 6 11 1014.6 1014.1 0.0
24/04:00pm 26.4 23.8 13.2 44 7.8 NE 19 26 10 14 1014.5 1014.0 0.0
24/03:30pm 26.3 24.6 12.4 42 8.1 NNE 13 26 7 14 1014.7 1014.2 0.0
24/03:00pm 26.6 24.0 13.3 43 7.9 NE 19 24 10 13 1015.5 1015.0 0.0
24/02:30pm 25.8 24.0 13.3 46 7.4 NNE 15 26 8 14 1015.7 1015.2 0.0
24/02:00pm 25.4 23.3 13.6 48 7.0 NNE 17 26 9 14 1015.9 1015.4 0.0
24/01:30pm 24.9 22.8 13.5 49 6.7 NNE 17 28 9 15 1016.6 1016.1 0.0
24/01:00pm 25.3 22.8 13.5 48 7.0 NNE 19 28 10 15 1017.0 1016.5 0.0
24/12:30pm 24.7 22.0 13.6 50 6.6 NNE 20 32 11 17 1017.1 1016.6 0.0
24/12:00pm 23.4 21.2 13.3 53 5.9 N 17 28 9 15 1018.0 1017.6 0.0
24/11:30am 22.5 19.5 13.6 57 5.2 NE 22 30 12 16 1018.0 1017.6 0.0
24/11:00am 21.1 18.6 14.0 64 4.1 NE 20 26 11 14 1018.3 1017.9 0.0
24/10:30am 19.7 18.4 14.7 73 2.9 NE 15 19 8 10 1018.6 1018.2 0.0
24/10:00am 18.9 18.6 14.4 75 2.6 NE 9 13 5 7 1018.9 1018.4 0.0
24/09:30am 16.0 17.9 15.7 98 0.2 CALM 0 0 0 0 1018.3 1017.9 0.0
24/09:00am 15.1 16.6 14.6 97 0.3 CALM 0 0 0 0 1018.2 1017.8 0.0
24/08:30am 14.3 15.6 14.1 99 0.1 CALM 0 0 0 0 1018.0 1017.6 0.0
24/08:00am 13.1 14.0 12.9 99 0.1 CALM 0 0 0 0 1017.8 1017.4 0.0
24/07:30am 12.7 12.3 12.5 99 0.1 SSE 6 6 3 3 1017.7 1017.3 0.0
24/07:00am 12.8 12.3 12.6 99 0.1 SSE 7 9 4 5 1017.4 1017.0 0.0
24/06:30am 13.0 12.7 12.8 99 0.1 SE 6 7 3 4 1017.2 1016.8 0.0
24/06:00am 12.8 12.3 12.6 99 0.1 SSE 7 7 4 4 1017.1 1016.6 0.0
24/05:30am 13.0 12.5 12.8 99 0.1 SE 7 9 4 5 1017.0 1016.5 0.0
24/05:00am 13.0 12.5 12.8 99 0.1 SSE 7 9 4 5 1017.2 1016.8 0.0
24/04:30am 12.9 12.6 12.7 99 0.1 SE 6 9 3 5 1017.5 1017.1 0.0
24/04:00am 12.7 11.8 12.5 99 0.1 SSE 9 11 5 6 1017.6 1017.2 0.0
24/03:30am 12.5 11.1 12.3 99 0.1 SSE 11 13 6 7 1017.7 1017.3 0.0
24/03:00am 12.3 10.5 12.1 99 0.1 SE 13 15 7 8 1018.0 1017.6 0.0
24/02:30am 12.6 12.0 12.3 98 0.2 S 7 9 4 5 1018.9 1018.4 0.0
24/02:00am 12.9 12.3 12.4 97 0.3 S 7 9 4 5 1019.1 1018.6 0.0
24/01:30am 13.4 13.0 12.5 94 0.5 SSE 6 7 3 4 1019.0 1018.5 0.0
24/01:00am 13.4 12.1 12.5 94 0.5 SE 11 15 6 8 1018.9 1018.4 0.0
24/12:30am 13.5 12.7 11.7 89 1.0 SSE 7 9 4 5 1019.2 1018.7 0.0
24/12:00am 14.5 13.8 12.0 85 1.4 SSE 7 13 4 7 1019.4 1018.9 0.0
 
Date/Time
EDT
Temp
°C
App
Temp
°C
Dew
Point
°C
Rel
Hum
%
Delta-T
°C
Wind Press
QNH
hPa
Press
MSL
hPa
Rain since
9am
mm
Dir  Spd
km/h
Gust
km/h
Spd
kts
Gust
kts
23/11:30pm 15.1 13.3 12.2 83 1.6 SE 13 17 7 9 1019.0 1018.5 0.0
23/11:00pm 15.4 14.0 12.2 81 1.8 SE 11 15 6 8 1019.3 1018.8 0.0
23/10:30pm 15.8 14.0 12.2 79 2.0 SE 13 19 7 10 1019.4 1018.9 0.0
23/10:00pm 16.4 14.6 12.0 75 2.4 SE 13 19 7 10 1019.3 1018.8 0.0
23/09:30pm 18.3 16.6 12.5 69 3.3 SE 13 19 7 10 1019.1 1018.6 0.0
23/09:00pm 18.8 16.2 12.1 65 3.7 SE 17 24 9 13 1018.9 1018.4 0.0
23/08:30pm 19.5 16.4 11.5 60 4.4 SE 19 26 10 14 1018.5 1018.1 0.0
23/08:00pm 20.2 17.0 11.1 56 5.0 SE 19 26 10 14 1018.2 1017.8 0.0
23/07:30pm 21.0 17.8 11.1 53 5.5 SE 19 24 10 13 1018.0 1017.6 0.0
23/07:00pm 22.4 18.3 11.5 50 6.1 SE 24 32 13 17 1017.8 1017.4 0.0
23/06:30pm 23.6 19.9 11.6 47 6.8 SE 22 30 12 16 1017.7 1017.3 0.0
23/06:00pm 24.3 21.3 11.9 45 7.1 SE 19 28 10 15 1017.6 1017.2 0.0
23/05:30pm 24.5 21.4 12.1 46 7.1 ESE 20 30 11 16 1017.5 1017.1 0.0
23/05:00pm 24.2 21.1 12.2 47 6.9 SE 20 30 11 16 1017.5 1017.1 0.0
23/04:30pm 24.1 21.1 12.7 49 6.6 SE 20 28 11 15 1017.5 1017.1 0.0
23/04:00pm 23.9 21.0 12.2 48 6.7 SSE 19 24 10 13 1017.6 1017.2 0.0
23/03:30pm 23.1 20.1 12.1 50 6.3 SSE 19 26 10 14 1017.8 1017.4 0.0
23/03:00pm 23.6 20.7 12.3 49 6.5 SE 19 26 10 14 1017.9 1017.5 0.0
23/02:30pm 24.2 20.1 11.5 45 7.2 SSE 24 32 13 17 1018.3 1017.9 0.0
23/02:00pm 23.5 20.0 12.2 49 6.5 SE 22 32 12 17 1018.9 1018.4 0.0
23/01:30pm 23.8 19.4 11.8 47 6.8 SE 26 35 14 19 1019.1 1018.6 0.0
23/01:00pm 23.6 20.1 12.3 49 6.5 SE 22 32 12 17 1019.1 1018.6 0.0
23/12:30pm 22.7 19.5 12.0 50 6.1 SE 20 30 11 16 1019.6 1019.1 0.0
23/12:00pm 22.4 18.6 12.4 53 5.7 SSE 24 33 13 18 1019.7 1019.2 0.0
23/11:30am 21.4 17.2 12.5 57 5.1 SE 26 32 14 17 1020.0 1019.5 0.0
23/11:00am 20.9 17.2 12.6 59 4.7 SE 24 32 13 17 1020.0 1019.5 0.0
23/10:30am 19.9 15.3 12.4 62 4.2 SE 28 37 15 20 1020.0 1019.5 0.0
23/10:00am 18.8 15.7 12.3 66 3.6 SE 20 32 11 17 1019.9 1019.4 0.0
23/09:30am 17.6 13.8 12.3 71 3.0 SE 24 35 13 19 1019.7 1019.2 0.0
23/09:00am 16.7 13.7 12.5 76 2.3 SE 20 30 11 16 1019.6 1019.1 0.0
23/08:30am 15.4 12.3 12.3 82 1.7 SSE 20 30 11 16 1019.3 1018.8 0.0
23/08:00am 14.6 11.8 12.5 87 1.2 SSE 19 24 10 13 1019.0 1018.5 0.0
23/07:30am 14.5 11.6 12.4 87 1.2 SSE 19 26 10 14 1018.8 1018.3 0.0
23/07:00am 14.8 11.7 12.3 85 1.4 SE 20 30 11 16 1018.5 1018.1 0.0
23/06:30am 14.6 11.8 12.5 87 1.2 SSE 19 26 10 14 1018.1 1017.7 0.0
23/06:00am 14.7 11.7 12.6 87 1.2 SSE 20 28 11 15 1017.8 1017.4 0.0
23/05:30am 14.9 11.9 12.6 86 1.3 SSE 20 30 11 16 1017.8 1017.4 0.0
23/05:00am 15.2 11.9 12.9 86 1.3 SE 22 30 12 16 1017.7 1017.3 0.0
23/04:30am 15.1 11.5 13.0 87 1.2 SSE 24 35 13 19 1017.8 1017.4 0.0
23/04:00am 15.0 11.4 13.2 89 1.0 SSE 24 33 13 18 1017.8 1017.4 0.0
23/03:30am 15.3 11.8 13.3 88 1.1 SSE 24 32 13 17 1017.8 1017.4 0.0
23/03:00am 15.2 12.4 13.2 88 1.1 SSE 20 28 11 15 1018.1 1017.7 0.0
23/02:30am 15.6 12.5 13.3 86 1.3 SSE 22 33 12 18 1018.2 1017.8 0.0
23/02:00am 15.7 12.9 13.2 85 1.4 SE 20 30 11 16 1018.5 1018.1 0.0
23/01:30am 16.0 13.2 13.1 83 1.6 SE 20 30 11 16 1018.6 1018.2 0.0
23/01:00am 16.2 13.4 13.1 82 1.7 SE 20 33 11 18 1019.0 1018.5 0.0
23/12:30am 16.4 13.1 12.9 80 2.0 SE 22 30 12 16 1019.1 1018.6 0.0
23/12:00am 16.7 13.8 13.0 79 2.1 SE 20 30 11 16 1019.0 1018.5 0.0
 
Date/Time
EDT
Temp
°C
App
Temp
°C
Dew
Point
°C
Rel
Hum
%
Delta-T
°C
Wind Press
QNH
hPa
Press
MSL
hPa
Rain since
9am
mm
Dir  Spd
km/h
Gust
km/h
Spd
kts
Gust
kts
22/11:30pm 16.8 13.2 13.1 79 2.1 SE 24 39 13 21 1019.0 1018.5 0.0
22/11:00pm 16.9 13.1 13.6 81 1.9 SE 26 39 14 21 1019.0 1018.5 0.0
22/10:30pm 16.5 14.7 15.4 93 0.6 SSE 19 28 10 15 1019.2 1018.7 0.0
22/10:00pm 16.7 14.0 15.6 93 0.6 SSE 24 30 13 16 1019.0 1018.5 0.0
22/09:30pm 17.0 14.6 15.5 91 0.9 SSE 22 32 12 17 1018.5 1018.1 0.0
22/09:00pm 17.3 14.9 15.3 88 1.2 SSE 22 33 12 18 1018.3 1017.9 0.0

Other Formats:

Comma delimited format used in spreadsheet applications
http://www.bom.gov.au/fwo/IDV60801/IDV60801.95827.axf

JavaScript Object Notation format (JSON) in row-major order
http://www.bom.gov.au/fwo/IDV60801/IDV60801.95827.json